createdAt,value
2023-02-16T00:01:51.419Z,101788.25
2023-02-16T00:04:23.044Z,101795.19
2023-02-16T00:06:56.174Z,101789.41
2023-02-16T00:09:25.270Z,101787.03
2023-02-16T00:12:11.931Z,101792.81
2023-02-16T00:14:40.935Z,101787.41
2023-02-16T00:17:12.291Z,101792.50
2023-02-16T00:19:42.917Z,101791.25
2023-02-16T00:22:11.592Z,101799.81
2023-02-16T00:24:39.602Z,101793.72
2023-02-16T00:27:14.410Z,101792.00
2023-02-16T00:29:44.771Z,101797.88
2023-02-16T00:32:13.883Z,101795.19
2023-02-16T00:34:44.092Z,101788.38
2023-02-16T00:37:14.322Z,101794.25
2023-02-16T00:39:44.053Z,101797.59
2023-02-16T00:42:18.320Z,101795.03
2023-02-16T00:44:48.923Z,101791.47
2023-02-16T00:47:21.471Z,101785.41
2023-02-16T00:49:52.875Z,101792.38
2023-02-16T00:52:34.215Z,101792.41
2023-02-16T00:55:03.697Z,101786.75
2023-02-16T00:57:37.596Z,101788.47
2023-02-16T01:00:12.797Z,101786.75
2023-02-16T01:02:40.852Z,101785.22
2023-02-16T01:05:10.264Z,101787.03
2023-02-16T01:07:55.410Z,101785.13
2023-02-16T01:10:43.392Z,101791.06
2023-02-16T01:13:12.355Z,101789.22
2023-02-16T01:15:40.466Z,101784.66
2023-02-16T01:18:08.907Z,101785.41
2023-02-16T01:20:38.183Z,101785.50
2023-02-16T01:23:08.439Z,101776.03
2023-02-16T01:25:37.343Z,101773.19
2023-02-16T01:28:17.696Z,101773.19
2023-02-16T01:30:45.975Z,101777.91
2023-02-16T01:33:13.948Z,101772.38
2023-02-16T01:35:43.545Z,101772.81
2023-02-16T01:38:19.000Z,101773.75
2023-02-16T01:40:56.706Z,101772.75
2023-02-16T01:43:29.883Z,101766.13
2023-02-16T01:46:02.964Z,101765.25
2023-02-16T01:48:32.998Z,101759.63
2023-02-16T01:51:08.030Z,101761.59
2023-02-16T01:53:41.216Z,101763.69
2023-02-16T01:56:18.784Z,101764.50
2023-02-16T01:58:51.706Z,101758.94
2023-02-16T02:01:42.195Z,101758.19
2023-02-16T02:04:33.184Z,101761.38
2023-02-16T02:07:03.545Z,101763.00
2023-02-16T02:09:39.193Z,101762.03
2023-02-16T02:12:15.644Z,101764.75
2023-02-16T02:14:43.819Z,101754.03
2023-02-16T02:17:15.694Z,101761.94
2023-02-16T02:19:53.920Z,101760.22
2023-02-16T02:23:20.936Z,101754.00
2023-02-16T02:26:27.211Z,101744.50
2023-02-16T02:29:13.623Z,101742.94
2023-02-16T02:31:51.488Z,101751.63
2023-02-16T02:34:27.958Z,101763.94
2023-02-16T02:37:05.360Z,101741.88
2023-02-16T02:39:41.087Z,101751.78
2023-02-16T02:42:14.939Z,101755.09
2023-02-16T02:45:03.080Z,101739.00
2023-02-16T02:47:39.983Z,101740.50
2023-02-16T02:50:35.157Z,101743.47
2023-02-16T02:53:09.370Z,101740.34
2023-02-16T02:55:59.680Z,101734.97
2023-02-16T02:58:50.622Z,101732.97
2023-02-16T03:01:23.359Z,101729.25
2023-02-16T03:03:55.233Z,101728.25
2023-02-16T03:06:27.261Z,101731.53
2023-02-16T03:09:00.740Z,101724.81
2023-02-16T03:11:48.323Z,101721.66
2023-02-16T03:14:19.379Z,101724.13
2023-02-16T03:17:06.094Z,101733.97
2023-02-16T03:19:51.913Z,101731.25
2023-02-16T03:22:37.447Z,101723.88
2023-02-16T03:25:23.379Z,101719.13
2023-02-16T03:28:09.530Z,101733.97
2023-02-16T03:30:38.118Z,101719.34
2023-02-16T03:33:07.595Z,101718.94
2023-02-16T03:35:37.027Z,101733.97
2023-02-16T03:38:05.762Z,101728.94
2023-02-16T03:40:35.574Z,101730.84
2023-02-16T03:43:05.922Z,101733.47
2023-02-16T03:45:37.247Z,101731.72
2023-02-16T03:48:05.428Z,101734.94
2023-02-16T03:50:34.828Z,101733.97
2023-02-16T03:53:07.852Z,101727.84
2023-02-16T03:55:37.665Z,101722.66
2023-02-16T03:58:06.374Z,101723.19
2023-02-16T04:00:34.855Z,101724.53
2023-02-16T04:03:03.020Z,101721.00
2023-02-16T04:05:31.393Z,101726.31
2023-02-16T04:08:00.916Z,101722.00
2023-02-16T04:10:29.027Z,101725.44
2023-02-16T04:12:56.109Z,101728.88
2023-02-16T04:15:27.178Z,101721.28
2023-02-16T04:17:55.408Z,101727.38
2023-02-16T04:20:26.679Z,101733.28
2023-02-16T04:22:54.792Z,101717.47
2023-02-16T04:25:24.732Z,101723.53
2023-02-16T04:27:53.405Z,101722.88
2023-02-16T04:30:23.718Z,101722.34
2023-02-16T04:32:51.759Z,101720.84
2023-02-16T04:35:20.771Z,101720.81
2023-02-16T04:37:49.071Z,101722.09
2023-02-16T04:40:18.961Z,101724.44
2023-02-16T04:42:48.471Z,101722.00
2023-02-16T04:45:16.685Z,101725.19
2023-02-16T04:47:44.624Z,101719.47
2023-02-16T04:50:13.513Z,101719.91
2023-02-16T04:52:45.363Z,101721.97
2023-02-16T04:55:13.356Z,101719.25
2023-02-16T04:57:41.440Z,101716.94
2023-02-16T05:00:12.816Z,101716.03
2023-02-16T05:02:41.231Z,101711.09
2023-02-16T05:05:09.821Z,101711.94
2023-02-16T05:07:38.083Z,101708.53
2023-02-16T05:10:07.212Z,101707.81
2023-02-16T05:12:53.020Z,101708.69
2023-02-16T05:15:22.356Z,101713.69
2023-02-16T05:17:50.257Z,101719.09
2023-02-16T05:20:18.363Z,101719.19
2023-02-16T05:22:46.520Z,101729.50
2023-02-16T05:25:14.584Z,101726.91
2023-02-16T05:27:42.696Z,101737.28
2023-02-16T05:30:12.166Z,101734.63
2023-02-16T05:32:41.475Z,101736.97
2023-02-16T05:35:09.673Z,101735.41
2023-02-16T05:37:37.689Z,101732.91
2023-02-16T05:40:06.541Z,101734.84
2023-02-16T05:42:34.406Z,101735.66
2023-02-16T05:45:03.553Z,101720.94
2023-02-16T05:47:31.820Z,101721.72
2023-02-16T05:50:01.108Z,101717.13
2023-02-16T05:52:29.085Z,101718.31
2023-02-16T05:54:57.072Z,101720.78
2023-02-16T05:57:25.006Z,101718.09
2023-02-16T05:59:52.907Z,101718.16
2023-02-16T06:02:20.918Z,101730.31
2023-02-16T06:04:48.882Z,101731.06
2023-02-16T06:07:18.186Z,101739.56
2023-02-16T06:09:46.103Z,101742.06
2023-02-16T06:12:15.255Z,101738.78
2023-02-16T06:14:43.215Z,101738.69
2023-02-16T06:17:11.377Z,101734.38
2023-02-16T06:19:39.347Z,101729.25
2023-02-16T06:22:07.408Z,101735.34
2023-02-16T06:24:37.146Z,101737.94
2023-02-16T06:27:05.332Z,101746.72
2023-02-16T06:29:33.615Z,101740.72
2023-02-16T06:32:01.720Z,101740.75
2023-02-16T06:34:29.786Z,101742.47
2023-02-16T06:36:57.874Z,101745.84
2023-02-16T06:39:26.493Z,101747.47
2023-02-16T06:41:55.754Z,101748.44
2023-02-16T06:44:23.659Z,101742.31
2023-02-16T06:46:54.047Z,101749.25
2023-02-16T06:49:22.774Z,101751.78
2023-02-16T06:51:51.536Z,101756.75
2023-02-16T06:54:20.117Z,101755.34
2023-02-16T06:56:48.216Z,101751.66
2023-02-16T06:59:17.630Z,101756.84
2023-02-16T07:01:45.898Z,101751.75
2023-02-16T07:04:14.372Z,101752.53
2023-02-16T07:06:42.751Z,101751.25
2023-02-16T07:09:12.736Z,101752.88
2023-02-16T07:11:40.939Z,101760.78
2023-02-16T07:14:09.330Z,101759.53
2023-02-16T07:16:38.776Z,101758.13
2023-02-16T07:19:07.501Z,101760.66
2023-02-16T07:21:35.767Z,101751.59
2023-02-16T07:24:03.703Z,101758.59
2023-02-16T07:26:31.831Z,101749.34
2023-02-16T07:29:00.129Z,101755.25
2023-02-16T07:31:28.547Z,101748.19
2023-02-16T07:33:58.195Z,101752.47
2023-02-16T07:36:26.317Z,101752.03
2023-02-16T07:38:55.068Z,101748.16
2023-02-16T07:41:23.410Z,101740.13
2023-02-16T07:43:51.654Z,101739.16
2023-02-16T07:46:19.587Z,101740.03
2023-02-16T07:48:48.646Z,101743.34
2023-02-16T07:51:23.754Z,101733.09
2023-02-16T07:53:51.800Z,101742.41
2023-02-16T07:56:21.548Z,101754.31
2023-02-16T07:58:49.640Z,101746.41
2023-02-16T08:01:18.711Z,101744.53
2023-02-16T08:03:49.422Z,101739.53
2023-02-16T08:06:17.812Z,101745.22
2023-02-16T08:08:47.908Z,101752.97
2023-02-16T08:11:18.328Z,101759.69
2023-02-16T08:13:46.786Z,101756.16
2023-02-16T08:16:16.900Z,101752.50
2023-02-16T08:18:45.239Z,101750.56
2023-02-16T08:21:16.188Z,101759.00
2023-02-16T08:23:47.578Z,101756.16
2023-02-16T08:26:18.227Z,101757.03
2023-02-16T08:28:47.801Z,101756.69
2023-02-16T08:31:16.935Z,101760.28
2023-02-16T08:33:45.239Z,101764.50
2023-02-16T08:36:18.310Z,101762.47
2023-02-16T08:38:46.373Z,101757.00
2023-02-16T08:41:14.336Z,101766.09
2023-02-16T08:43:43.672Z,101765.06
2023-02-16T08:46:11.703Z,101758.81
2023-02-16T08:48:40.548Z,101752.44
2023-02-16T08:51:09.978Z,101754.50
2023-02-16T08:53:37.938Z,101747.38
2023-02-16T08:56:06.973Z,101746.31
2023-02-16T08:58:35.052Z,101739.09
2023-02-16T09:01:08.104Z,101733.66
2023-02-16T09:03:37.183Z,101747.00
2023-02-16T09:06:06.982Z,101734.53
2023-02-16T09:08:37.399Z,101734.81
2023-02-16T09:11:07.094Z,101732.28
2023-02-16T09:13:35.652Z,101735.41
2023-02-16T09:16:05.262Z,101739.97
2023-02-16T09:18:36.796Z,101723.03
2023-02-16T09:21:06.812Z,101721.69
2023-02-16T09:23:35.627Z,101732.78
2023-02-16T09:26:06.933Z,101734.41
2023-02-16T09:28:35.502Z,101735.22
2023-02-16T09:31:10.455Z,101734.47
2023-02-16T09:33:40.225Z,101733.44
2023-02-16T09:36:10.561Z,101737.13
2023-02-16T09:38:40.060Z,101733.78
2023-02-16T09:41:11.626Z,101738.59
2023-02-16T09:43:48.668Z,101735.41
2023-02-16T09:46:22.604Z,101731.66
2023-02-16T09:48:53.079Z,101740.78
2023-02-16T09:51:33.749Z,101737.56
2023-02-16T09:54:14.631Z,101737.78
2023-02-16T09:56:53.394Z,101727.06
2023-02-16T09:59:35.342Z,101723.22
2023-02-16T10:02:25.463Z,101724.56
2023-02-16T10:05:13.266Z,101726.34
2023-02-16T10:07:52.824Z,101728.38
2023-02-16T10:10:25.710Z,101736.47
2023-02-16T10:12:57.975Z,101729.88
2023-02-16T10:15:30.261Z,101726.59
2023-02-16T10:18:02.974Z,101720.47
2023-02-16T10:20:36.810Z,101726.47
2023-02-16T10:23:14.305Z,101723.72
2023-02-16T10:25:48.691Z,101731.53
2023-02-16T10:28:18.077Z,101726.09
2023-02-16T10:30:51.870Z,101729.16
2023-02-16T10:33:34.867Z,101724.44
2023-02-16T10:36:16.378Z,101731.47
2023-02-16T10:38:55.518Z,101725.72
2023-02-16T10:41:32.972Z,101730.97
2023-02-16T10:44:08.977Z,101723.97
2023-02-16T10:47:01.740Z,101705.69
2023-02-16T10:49:32.699Z,101707.94
2023-02-16T10:52:03.797Z,101704.47
2023-02-16T10:54:33.590Z,101699.22
2023-02-16T10:57:04.084Z,101700.38
2023-02-16T10:59:38.836Z,101701.09
2023-02-16T11:02:19.542Z,101698.94
2023-02-16T11:04:53.630Z,101699.81
2023-02-16T11:07:24.946Z,101701.63
2023-02-16T11:09:55.618Z,101694.66
2023-02-16T11:12:29.479Z,101694.81
2023-02-16T11:15:03.060Z,101692.47
2023-02-16T11:17:33.383Z,101697.06
2023-02-16T11:20:05.524Z,101694.03
2023-02-16T11:22:38.033Z,101699.28
2023-02-16T11:25:23.338Z,101696.25
2023-02-16T11:27:53.890Z,101689.88
2023-02-16T11:30:30.424Z,101686.06
2023-02-16T11:33:00.935Z,101687.09
2023-02-16T11:35:31.279Z,101682.59
2023-02-16T11:38:01.033Z,101678.53
2023-02-16T11:40:32.667Z,101677.81
2023-02-16T11:43:02.667Z,101676.25
2023-02-16T11:45:34.439Z,101673.81
2023-02-16T11:48:07.159Z,101678.81
2023-02-16T11:50:39.750Z,101675.22
2023-02-16T11:53:26.672Z,101672.97
2023-02-16T11:56:19.061Z,101669.88
2023-02-16T11:59:03.215Z,101668.06
2023-02-16T12:01:46.262Z,101664.66
2023-02-16T12:04:23.448Z,101652.91
2023-02-16T12:07:04.281Z,101654.06
2023-02-16T12:09:40.488Z,101655.84
2023-02-16T12:12:15.541Z,101650.69
2023-02-16T12:14:53.190Z,101649.00
2023-02-16T12:17:33.031Z,101657.91
2023-02-16T12:20:14.912Z,101647.22
2023-02-16T12:22:48.118Z,101643.19
2023-02-16T12:25:27.938Z,101640.38
2023-02-16T12:28:05.094Z,101635.75
2023-02-16T12:30:46.299Z,101640.97
2023-02-16T12:33:30.476Z,101644.59
2023-02-16T12:36:20.460Z,101637.56
2023-02-16T12:38:59.767Z,101640.09
2023-02-16T12:41:45.588Z,101631.75
2023-02-16T12:44:18.874Z,101638.47
2023-02-16T12:46:49.418Z,101642.94
2023-02-16T12:49:24.497Z,101644.16
2023-02-16T12:51:58.360Z,101632.91
2023-02-16T12:54:30.999Z,101634.53
2023-02-16T12:57:04.583Z,101635.13
2023-02-16T12:59:39.873Z,101631.81
2023-02-16T13:02:18.850Z,101632.13
2023-02-16T13:04:51.791Z,101626.44
2023-02-16T13:07:27.308Z,101628.06
2023-02-16T13:10:02.981Z,101628.06
2023-02-16T13:12:37.240Z,101618.06
2023-02-16T13:15:12.005Z,101616.09
2023-02-16T13:17:43.844Z,101613.75
2023-02-16T13:20:18.088Z,101606.94
2023-02-16T13:23:11.408Z,101602.50
2023-02-16T13:26:01.051Z,101606.16
2023-02-16T13:28:55.600Z,101613.84
2023-02-16T13:31:36.525Z,101605.78
2023-02-16T13:34:25.192Z,101614.16
2023-02-16T13:37:06.786Z,101609.44
2023-02-16T13:40:01.653Z,101602.88
2023-02-16T13:43:04.553Z,101594.50
2023-02-16T13:45:39.694Z,101597.00
2023-02-16T13:48:16.111Z,101590.06
2023-02-16T13:50:46.702Z,101597.75
2023-02-16T13:53:21.265Z,101602.72
2023-02-16T13:55:50.714Z,101604.19
2023-02-16T13:58:33.668Z,101601.22
2023-02-16T14:01:38.612Z,101600.22
2023-02-16T14:04:11.961Z,101596.66
2023-02-16T14:06:42.696Z,101595.38
2023-02-16T14:09:36.774Z,101597.53
2023-02-16T14:12:17.424Z,101596.75
2023-02-16T14:14:56.725Z,101592.06
2023-02-16T14:17:31.190Z,101591.72
2023-02-16T14:20:04.786Z,101589.72
2023-02-16T14:22:40.652Z,101596.06
2023-02-16T14:25:39.498Z,101593.84
2023-02-16T14:28:46.363Z,101591.53
2023-02-16T14:31:18.628Z,101591.59
2023-02-16T14:33:53.414Z,101589.38
2023-02-16T14:36:24.179Z,101586.19
2023-02-16T14:38:58.199Z,101585.97
2023-02-16T14:41:30.511Z,101591.75
2023-02-16T14:44:24.573Z,101591.75
2023-02-16T14:47:01.163Z,101588.91
2023-02-16T14:49:55.142Z,101582.88
2023-02-16T14:52:55.475Z,101579.19
2023-02-16T14:55:47.622Z,101583.81
2023-02-16T14:58:25.011Z,101585.38
2023-02-16T15:00:58.771Z,101584.13
2023-02-16T15:03:40.953Z,101585.97
2023-02-16T15:06:19.870Z,101585.31
2023-02-16T15:08:57.076Z,101577.72
2023-02-16T15:11:31.375Z,101582.47
2023-02-16T15:14:08.416Z,101580.91
2023-02-16T15:16:41.565Z,101569.97
2023-02-16T15:19:17.195Z,101585.44
2023-02-16T15:21:46.522Z,101578.69
2023-02-16T15:24:23.644Z,101570.91
2023-02-16T15:27:01.508Z,101581.75
2023-02-16T15:29:33.265Z,101584.50
2023-02-16T15:32:01.964Z,101578.06
2023-02-16T15:34:33.243Z,101577.41
2023-02-16T15:37:25.159Z,101577.28
2023-02-16T15:40:15.037Z,101570.19
2023-02-16T15:42:44.419Z,101571.72
2023-02-16T15:45:35.227Z,101571.22
2023-02-16T15:48:25.410Z,101572.44
2023-02-16T15:50:55.189Z,101571.16
2023-02-16T15:53:34.785Z,101568.09
2023-02-16T15:56:05.277Z,101564.81
2023-02-16T15:58:36.609Z,101554.97
2023-02-16T16:01:04.954Z,101559.25
2023-02-16T16:03:33.129Z,101554.34
2023-02-16T16:06:04.944Z,101554.91
2023-02-16T16:08:34.776Z,101556.97
2023-02-16T16:11:03.403Z,101552.81
2023-02-16T16:13:32.882Z,101542.25
2023-02-16T16:16:04.548Z,101536.47
2023-02-16T16:18:46.094Z,101539.88
2023-02-16T16:21:23.550Z,101545.19
2023-02-16T16:23:58.954Z,101538.47
2023-02-16T16:26:29.435Z,101537.47
2023-02-16T16:28:57.931Z,101527.22
2023-02-16T16:31:35.548Z,101536.94
2023-02-16T16:34:06.023Z,101537.75
2023-02-16T16:36:38.587Z,101537.28
2023-02-16T16:39:21.327Z,101531.91
2023-02-16T16:42:19.205Z,101530.63
2023-02-16T16:44:57.272Z,101537.72
2023-02-16T16:47:35.108Z,101531.84
2023-02-16T16:50:07.185Z,101527.63
2023-02-16T16:52:41.700Z,101526.06
2023-02-16T16:55:25.501Z,101527.28
2023-02-16T16:57:55.503Z,101518.44
2023-02-16T17:00:39.074Z,101514.41
2023-02-16T17:03:09.696Z,101517.28
2023-02-16T17:05:41.408Z,101514.16
2023-02-16T17:08:09.755Z,101517.56
2023-02-16T17:10:42.419Z,101514.38
2023-02-16T17:13:33.351Z,101517.19
2023-02-16T17:16:06.061Z,101519.06
2023-02-16T17:18:35.324Z,101525.84
2023-02-16T17:21:06.817Z,101517.19
2023-02-16T17:23:36.469Z,101522.81
2023-02-16T17:26:06.950Z,101531.38
2023-02-16T17:28:37.702Z,101529.91
2023-02-16T17:31:10.547Z,101524.66
2023-02-16T17:33:38.619Z,101522.47
2023-02-16T17:36:08.108Z,101529.13
2023-02-16T17:38:36.150Z,101523.84
2023-02-16T17:41:04.196Z,101516.81
2023-02-16T17:43:33.465Z,101519.69
2023-02-16T17:46:04.634Z,101526.06
2023-02-16T17:48:33.180Z,101527.03
2023-02-16T17:51:03.890Z,101534.34
2023-02-16T17:53:33.877Z,101533.28
2023-02-16T17:56:01.790Z,101534.16
2023-02-16T17:58:33.940Z,101544.00
2023-02-16T18:01:07.017Z,101537.81
2023-02-16T18:03:35.023Z,101540.28
2023-02-16T18:06:03.149Z,101532.66
2023-02-16T18:08:31.140Z,101530.91
2023-02-16T18:11:02.028Z,101529.22
2023-02-16T18:13:30.601Z,101534.97
2023-02-16T18:16:03.642Z,101531.00
2023-02-16T18:18:34.666Z,101528.63
2023-02-16T18:21:03.111Z,101534.50
2023-02-16T18:23:31.349Z,101534.19
2023-02-16T18:25:59.336Z,101533.69
2023-02-16T18:28:28.934Z,101528.78
2023-02-16T18:30:57.452Z,101527.91
2023-02-16T18:33:31.979Z,101523.22
2023-02-16T18:36:03.970Z,101526.44
2023-02-16T18:38:34.128Z,101527.00
2023-02-16T18:41:03.389Z,101531.06
2023-02-16T18:43:31.419Z,101537.44
2023-02-16T18:45:59.352Z,101533.47
2023-02-16T18:48:28.674Z,101531.09
2023-02-16T18:50:56.590Z,101528.22
2023-02-16T18:53:24.552Z,101522.63
2023-02-16T18:55:52.560Z,101520.34
2023-02-16T18:58:20.488Z,101519.06
2023-02-16T19:00:48.645Z,101511.44
2023-02-16T19:03:16.582Z,101514.31
2023-02-16T19:05:46.059Z,101522.31
2023-02-16T19:08:14.474Z,101527.03
2023-02-16T19:10:42.725Z,101526.72
2023-02-16T19:13:12.870Z,101527.13
2023-02-16T19:15:40.860Z,101516.94
2023-02-16T19:18:08.871Z,101514.34
2023-02-16T19:20:38.317Z,101503.69
2023-02-16T19:23:10.982Z,101516.28
2023-02-16T19:25:39.025Z,101512.47
2023-02-16T19:28:07.095Z,101513.25
2023-02-16T19:30:35.135Z,101519.88
2023-02-16T19:33:03.177Z,101525.03
2023-02-16T19:35:31.274Z,101520.69
2023-02-16T19:38:00.656Z,101525.69
2023-02-16T19:40:30.059Z,101521.88
2023-02-16T19:42:57.980Z,101518.91
2023-02-16T19:45:25.898Z,101522.56
2023-02-16T19:47:53.863Z,101523.00
2023-02-16T19:50:21.809Z,101532.72
2023-02-16T19:52:49.725Z,101533.66
2023-02-16T19:55:17.855Z,101530.28
2023-02-16T19:57:49.429Z,101524.41
2023-02-16T20:00:20.013Z,101520.53
2023-02-16T20:02:48.097Z,101515.97
2023-02-16T20:05:16.130Z,101510.28
2023-02-16T20:07:44.066Z,101511.56
2023-02-16T20:10:14.350Z,101518.94
2023-02-16T20:12:42.328Z,101519.69
2023-02-16T20:15:13.968Z,101514.41
2023-02-16T20:17:41.996Z,101519.94
2023-02-16T20:20:10.357Z,101519.69
2023-02-16T20:22:38.316Z,101513.16
2023-02-16T20:25:06.920Z,101516.31
2023-02-16T20:27:35.820Z,101517.91
2023-02-16T20:30:07.879Z,101512.47
2023-02-16T20:32:38.163Z,101519.94
2023-02-16T20:35:07.814Z,101515.28
2023-02-16T20:37:35.944Z,101507.72
2023-02-16T20:40:04.596Z,101494.78
2023-02-16T20:42:32.582Z,101497.31
2023-02-16T20:45:00.724Z,101489.72
2023-02-16T20:47:28.677Z,101493.00
2023-02-16T20:49:58.994Z,101504.03
2023-02-16T20:52:28.187Z,101506.56
2023-02-16T20:54:56.162Z,101499.84
2023-02-16T20:57:27.058Z,101501.72
2023-02-16T20:59:55.925Z,101505.88
2023-02-16T21:02:23.995Z,101501.22
2023-02-16T21:04:52.018Z,101497.00
2023-02-16T21:07:30.607Z,101507.72
2023-02-16T21:10:00.671Z,101498.75
2023-02-16T21:12:28.769Z,101487.59
2023-02-16T21:14:56.841Z,101487.34
2023-02-16T21:17:24.948Z,101476.38
2023-02-16T21:19:55.644Z,101477.06
2023-02-16T21:22:24.601Z,101471.53
2023-02-16T21:24:53.900Z,101463.22
2023-02-16T21:27:21.795Z,101470.63
2023-02-16T21:29:49.777Z,101462.66
2023-02-16T21:32:17.704Z,101457.16
2023-02-16T21:34:45.611Z,101462.44
2023-02-16T21:37:13.706Z,101468.41
2023-02-16T21:39:58.981Z,101466.84
2023-02-16T21:42:28.339Z,101457.38
2023-02-16T21:45:12.331Z,101451.22
2023-02-16T21:47:58.828Z,101456.50
2023-02-16T21:50:27.181Z,101460.09
2023-02-16T21:52:55.667Z,101450.22
2023-02-16T21:55:41.207Z,101451.94
2023-02-16T21:58:10.720Z,101438.38
2023-02-16T22:00:40.609Z,101434.75
2023-02-16T22:03:09.617Z,101427.41
2023-02-16T22:05:37.482Z,101428.25
2023-02-16T22:08:06.084Z,101421.28
2023-02-16T22:10:35.685Z,101425.75
2023-02-16T22:13:03.664Z,101426.25
2023-02-16T22:15:32.998Z,101428.34
2023-02-16T22:18:00.970Z,101424.13
2023-02-16T22:20:28.935Z,101413.97
2023-02-16T22:22:56.878Z,101412.22
2023-02-16T22:25:24.978Z,101420.38
2023-02-16T22:27:52.945Z,101417.84
2023-02-16T22:30:20.993Z,101415.16
2023-02-16T22:32:51.645Z,101405.41
2023-02-16T22:35:19.544Z,101417.63
2023-02-16T22:37:47.536Z,101414.19
2023-02-16T22:40:15.774Z,101409.13
2023-02-16T22:42:43.673Z,101402.72
2023-02-16T22:45:11.852Z,101406.13
2023-02-16T22:47:39.794Z,101406.72
2023-02-16T22:50:10.138Z,101406.34
2023-02-16T22:52:38.160Z,101414.50
2023-02-16T22:55:06.499Z,101412.88
2023-02-16T22:57:36.992Z,101404.84
2023-02-16T23:00:09.000Z,101405.00
2023-02-16T23:02:38.109Z,101407.63
2023-02-16T23:05:06.679Z,101406.41
2023-02-16T23:07:36.898Z,101408.97
2023-02-16T23:10:05.644Z,101398.09
2023-02-16T23:12:33.503Z,101397.78
2023-02-16T23:15:01.393Z,101392.03
2023-02-16T23:17:29.298Z,101391.69
2023-02-16T23:19:57.155Z,101391.66
2023-02-16T23:22:25.044Z,101386.66
2023-02-16T23:25:08.220Z,101391.34
2023-02-16T23:27:36.188Z,101385.41
2023-02-16T23:30:05.002Z,101385.63
2023-02-16T23:32:32.939Z,101388.81
2023-02-16T23:35:00.905Z,101384.00
2023-02-16T23:37:32.366Z,101372.91
2023-02-16T23:40:01.601Z,101379.00
2023-02-16T23:42:29.586Z,101384.41
2023-02-16T23:44:57.434Z,101383.47
2023-02-16T23:47:25.341Z,101382.03
2023-02-16T23:49:53.333Z,101383.13
2023-02-16T23:52:21.209Z,101378.47
2023-02-16T23:54:49.099Z,101372.22
2023-02-16T23:57:18.365Z,101378.56
2023-02-16T23:59:46.779Z,101379.00
